Time;durP1;ratioP1;P1;durP2;ratioP2;P2;SDS_P1;SDS_P2;PMS_P1;PMS_P2;Temp;Humidity;BMP_temperature;BMP_pressure;BME280_temperature;BME280_humidity;BME280_pressure;Samples;Min_cycle;Max_cycle;Signal;HPM_P1;HPM_P2
2023/08/20 00:01:37;;;;;;;9.90;9.60;;;23.70;99.90;;;;;;6165214;23;20204;-78
2023/08/20 00:04:07;;;;;;;9.88;9.57;;;23.70;99.90;;;;;;6164872;23;20196;-78
2023/08/20 00:06:36;;;;;;;9.80;9.50;;;23.70;99.90;;;;;;6165093;23;20231;-78
2023/08/20 00:09:06;;;;;;;9.45;9.15;;;23.70;99.90;;;;;;6165313;23;20272;-78
2023/08/20 00:11:33;;;;;;;9.70;9.40;;;23.70;99.90;;;;;;6165977;23;20204;-79
2023/08/20 00:14:00;;;;;;;9.63;9.32;;;23.70;99.90;;;;;;6165715;23;20259;-78
2023/08/20 00:16:28;;;;;;;9.50;9.20;;;23.60;99.90;;;;;;6166029;23;20197;-78
2023/08/20 00:18:56;;;;;;;9.35;9.05;;;23.70;99.90;;;;;;6165481;23;20280;-78
2023/08/20 00:21:26;;;;;;;9.70;9.40;;;23.70;99.90;;;;;;6164855;23;20204;-77
2023/08/20 00:23:54;;;;;;;9.52;9.23;;;23.70;99.90;;;;;;6164349;23;20200;-77
2023/08/20 00:26:22;;;;;;;9.50;9.20;;;23.70;99.90;;;;;;6164944;23;20259;-78
2023/08/20 00:28:49;;;;;;;9.63;9.32;;;23.70;99.90;;;;;;6164907;23;20192;-78
2023/08/20 00:31:16;;;;;;;9.70;9.40;;;23.70;99.90;;;;;;6164090;23;20261;-78
2023/08/20 00:33:43;;;;;;;9.70;9.40;;;23.70;99.90;;;;;;6164276;23;20283;-78
2023/08/20 00:36:10;;;;;;;9.75;9.45;;;23.70;99.90;;;;;;6164944;23;20212;-78
2023/08/20 00:38:38;;;;;;;9.70;9.40;;;23.80;99.90;;;;;;6166644;23;20306;-77
2023/08/20 00:41:05;;;;;;;9.77;9.48;;;23.80;99.90;;;;;;6165548;23;20200;-78
2023/08/20 00:43:32;;;;;;;10.00;9.70;;;23.70;99.90;;;;;;6166753;23;20284;-78
2023/08/20 00:46:00;;;;;;;9.80;9.50;;;23.80;99.90;;;;;;6165923;23;20206;-77
2023/08/20 00:48:27;;;;;;;9.80;9.50;;;23.70;99.90;;;;;;6165063;23;20294;-77
2023/08/20 00:50:54;;;;;;;9.90;9.60;;;23.70;99.90;;;;;;6165041;23;20255;-77
2023/08/20 00:53:22;;;;;;;9.70;9.40;;;23.70;99.90;;;;;;6165426;23;20743;-78
2023/08/20 00:55:50;;;;;;;9.80;9.50;;;23.80;99.90;;;;;;6165207;23;20299;-78
2023/08/20 00:58:17;;;;;;;9.80;9.50;;;23.80;99.90;;;;;;6166188;23;20211;-78
2023/08/20 01:00:44;;;;;;;9.90;9.60;;;23.70;99.90;;;;;;6165162;23;20192;-77
2023/08/20 01:03:12;;;;;;;9.80;9.50;;;23.70;99.90;;;;;;6165004;23;20208;-78
2023/08/20 01:05:52;;;;;;;9.80;9.50;;;23.70;99.90;;;;;;6165124;23;20204;-77
2023/08/20 01:08:34;;;;;;;9.75;9.45;;;23.70;99.90;;;;;;6165365;23;20204;-77
2023/08/20 01:11:09;;;;;;;9.73;9.43;;;23.70;99.90;;;;;;6165718;23;20256;-77
2023/08/20 01:13:36;;;;;;;9.80;9.50;;;23.60;99.90;;;;;;6165037;23;20227;-78
2023/08/20 01:16:03;;;;;;;9.73;9.43;;;23.60;99.90;;;;;;6164323;23;20257;-77
2023/08/20 01:18:30;;;;;;;9.70;9.40;;;23.50;99.90;;;;;;6164279;23;20212;-78
2023/08/20 01:21:05;;;;;;;9.60;9.30;;;23.50;99.90;;;;;;6164169;23;20283;-77
2023/08/20 01:24:03;;;;;;;9.70;9.40;;;23.50;99.90;;;;;;6164693;23;20288;-78
2023/08/20 01:26:50;;;;;;;9.90;9.60;;;23.50;99.90;;;;;;6164292;23;20185;-78
2023/08/20 01:29:19;;;;;;;9.80;9.50;;;23.50;99.90;;;;;;6164826;23;20192;-78
2023/08/20 01:31:47;;;;;;;9.60;9.30;;;23.40;99.90;;;;;;6163885;23;20207;-77
2023/08/20 01:34:15;;;;;;;9.70;9.40;;;23.40;99.90;;;;;;6166783;23;20204;-77
2023/08/20 01:36:42;;;;;;;9.57;9.27;;;23.40;99.90;;;;;;6165620;23;20232;-76
2023/08/20 01:39:09;;;;;;;9.50;9.20;;;23.40;99.90;;;;;;6169091;23;20298;-78
2023/08/20 01:41:36;;;;;;;9.55;9.25;;;23.40;99.90;;;;;;6165808;23;20196;-77
2023/08/20 01:44:03;;;;;;;9.50;9.20;;;23.40;99.90;;;;;;6164598;23;20196;-78
2023/08/20 01:46:32;;;;;;;9.50;9.20;;;23.30;99.90;;;;;;6164826;23;20196;-77
2023/08/20 01:48:59;;;;;;;9.35;9.05;;;23.30;99.90;;;;;;6164673;23;20200;-78
2023/08/20 01:51:26;;;;;;;9.50;9.20;;;23.30;99.90;;;;;;6164711;23;20260;-77
2023/08/20 01:53:53;;;;;;;9.45;9.15;;;23.30;99.90;;;;;;6164505;23;20201;-78
2023/08/20 01:56:20;;;;;;;9.45;9.15;;;23.30;99.90;;;;;;6164335;23;20208;-77
2023/08/20 01:58:47;;;;;;;9.50;9.20;;;23.20;99.90;;;;;;6164405;23;20203;-78
2023/08/20 02:01:14;;;;;;;9.43;9.13;;;23.20;99.90;;;;;;6163061;23;20208;-78
2023/08/20 02:03:43;;;;;;;9.38;9.07;;;23.20;99.90;;;;;;6164218;23;20231;-78
2023/08/20 02:06:10;;;;;;;9.50;9.20;;;23.20;99.90;;;;;;6164791;23;20304;-77
2023/08/20 02:08:37;;;;;;;9.23;8.93;;;23.10;99.90;;;;;;6166411;23;20271;-78
2023/08/20 02:11:05;;;;;;;9.40;9.10;;;23.10;99.90;;;;;;6169347;23;20291;-78
2023/08/20 02:13:32;;;;;;;9.43;9.13;;;23.00;99.90;;;;;;6169109;23;20196;-78
2023/08/20 02:16:01;;;;;;;9.38;9.07;;;23.00;99.90;;;;;;6167679;23;20228;-78
2023/08/20 02:18:28;;;;;;;9.50;9.20;;;23.00;99.90;;;;;;6165821;23;20211;-78
2023/08/20 02:20:58;;;;;;;9.27;8.98;;;23.00;99.90;;;;;;6164995;23;20208;-78
2023/08/20 02:23:25;;;;;;;9.30;9.00;;;22.90;99.90;;;;;;6164889;23;20228;-77
2023/08/20 02:25:52;;;;;;;9.30;9.00;;;22.90;99.90;;;;;;6165161;23;20236;-78
2023/08/20 02:28:19;;;;;;;9.30;9.00;;;22.90;99.90;;;;;;6165588;23;20629;-78
2023/08/20 02:30:47;;;;;;;9.23;8.93;;;22.90;99.90;;;;;;6164746;23;20280;-78
2023/08/20 02:33:14;;;;;;;9.25;8.95;;;22.80;99.90;;;;;;6164852;23;20255;-78
2023/08/20 02:35:42;;;;;;;9.30;9.00;;;22.80;99.90;;;;;;6165020;23;20210;-78
2023/08/20 02:38:11;;;;;;;9.23;8.93;;;22.70;99.90;;;;;;6170280;23;20248;-78
2023/08/20 02:40:42;;;;;;;9.35;9.05;;;22.70;99.90;;;;;;6167239;23;20215;-79
2023/08/20 02:43:09;;;;;;;9.30;9.00;;;22.70;99.90;;;;;;6165574;23;20193;-79
2023/08/20 02:45:42;;;;;;;9.20;8.90;;;22.60;99.90;;;;;;6174638;23;20211;-78
2023/08/20 02:48:10;;;;;;;9.30;9.00;;;22.60;99.90;;;;;;6179343;23;20530;-80
2023/08/20 02:50:37;;;;;;;9.20;8.90;;;22.50;99.90;;;;;;6164639;23;20231;-78
2023/08/20 02:53:04;;;;;;;9.23;8.93;;;22.50;99.90;;;;;;6164797;23;20221;-78
2023/08/20 02:55:35;;;;;;;9.20;8.90;;;22.40;99.90;;;;;;6165300;23;20208;-79
2023/08/20 02:58:03;;;;;;;9.15;8.85;;;22.40;99.90;;;;;;6165039;23;20199;-78
2023/08/20 03:00:30;;;;;;;9.10;8.80;;;22.40;99.90;;;;;;6164684;23;20208;-78
2023/08/20 03:02:58;;;;;;;9.30;9.00;;;22.30;99.90;;;;;;6164098;23;20272;-78
2023/08/20 03:05:25;;;;;;;9.27;8.98;;;22.30;99.90;;;;;;6165001;23;20227;-79
2023/08/20 03:07:52;;;;;;;9.10;8.80;;;22.30;99.90;;;;;;6165302;23;20231;-77
2023/08/20 03:10:19;;;;;;;9.30;9.00;;;22.30;99.90;;;;;;6165471;23;20204;-78
2023/08/20 03:12:47;;;;;;;9.13;8.82;;;22.30;99.90;;;;;;6164843;23;20231;-78
2023/08/20 03:15:15;;;;;;;9.20;8.90;;;22.30;99.90;;;;;;6164461;23;20251;-78
2023/08/20 03:17:42;;;;;;;9.18;8.88;;;22.30;99.90;;;;;;6165499;23;20200;-78
2023/08/20 03:20:11;;;;;;;9.10;8.80;;;22.30;99.90;;;;;;6164628;23;20212;-79
2023/08/20 03:22:39;;;;;;;9.10;8.80;;;22.30;99.90;;;;;;6164703;23;20239;-77
2023/08/20 03:25:07;;;;;;;9.00;8.70;;;22.30;99.90;;;;;;6164661;23;20196;-78
2023/08/20 03:27:34;;;;;;;9.10;8.80;;;22.30;99.90;;;;;;6165544;23;20308;-78
2023/08/20 03:30:03;;;;;;;9.00;8.70;;;22.20;99.90;;;;;;6164160;23;20276;-78
2023/08/20 03:32:31;;;;;;;9.02;8.73;;;22.20;99.90;;;;;;6163251;23;20204;-78
2023/08/20 03:34:59;;;;;;;9.07;8.77;;;22.20;99.90;;;;;;6163748;23;20235;-78
2023/08/20 03:37:26;;;;;;;9.10;8.80;;;22.20;99.90;;;;;;6163613;23;20204;-78
2023/08/20 03:39:53;;;;;;;9.00;8.70;;;22.20;99.90;;;;;;6163847;23;20235;-77
2023/08/20 03:42:20;;;;;;;9.10;8.80;;;22.10;99.90;;;;;;6163273;23;20227;-78
2023/08/20 03:44:47;;;;;;;9.00;8.70;;;22.10;99.90;;;;;;6163763;23;20223;-78
2023/08/20 03:47:19;;;;;;;9.05;8.75;;;22.10;99.90;;;;;;6163618;23;20279;-78
2023/08/20 03:49:47;;;;;;;9.20;8.90;;;22.00;99.90;;;;;;6163709;23;20203;-78
2023/08/20 03:52:14;;;;;;;9.10;8.80;;;22.00;99.90;;;;;;6163805;23;20260;-78
2023/08/20 03:54:41;;;;;;;9.15;8.85;;;22.00;99.90;;;;;;6163737;23;20220;-78
2023/08/20 03:57:08;;;;;;;9.20;8.90;;;22.00;99.90;;;;;;6163704;23;20223;-77
2023/08/20 03:59:35;;;;;;;9.30;9.00;;;22.00;99.90;;;;;;6163380;23;20287;-78
2023/08/20 04:02:02;;;;;;;9.10;8.80;;;22.00;99.90;;;;;;6163561;23;20210;-78
2023/08/20 04:04:31;;;;;;;9.23;8.93;;;22.00;99.90;;;;;;6163868;23;20208;-78
2023/08/20 04:06:58;;;;;;;9.23;8.93;;;21.90;99.90;;;;;;6163982;23;20196;-78
2023/08/20 04:09:25;;;;;;;9.40;9.10;;;21.90;99.90;;;;;;6164343;23;20200;-79
2023/08/20 04:11:52;;;;;;;9.20;8.90;;;21.90;99.90;;;;;;6163974;23;20207;-79
2023/08/20 04:14:19;;;;;;;9.20;8.90;;;21.90;99.90;;;;;;6164538;23;20207;-78
2023/08/20 04:16:46;;;;;;;9.30;9.00;;;21.90;99.90;;;;;;6164826;23;20380;-78
2023/08/20 04:19:13;;;;;;;9.20;8.90;;;21.90;99.90;;;;;;6164657;23;20214;-78
2023/08/20 04:21:42;;;;;;;9.10;8.80;;;21.90;99.90;;;;;;6164395;23;20281;-79
2023/08/20 04:24:09;;;;;;;8.98;8.68;;;21.80;99.90;;;;;;6165159;23;20223;-78
2023/08/20 04:26:36;;;;;;;9.00;8.70;;;21.80;99.90;;;;;;6166255;23;20264;-78
2023/08/20 04:29:04;;;;;;;8.90;8.60;;;21.90;99.90;;;;;;6167023;23;20272;-78
2023/08/20 04:31:31;;;;;;;9.00;8.70;;;21.80;99.90;;;;;;6167617;23;20204;-78
2023/08/20 04:33:58;;;;;;;8.93;8.63;;;21.80;99.90;;;;;;6166679;23;20212;-79
2023/08/20 04:36:25;;;;;;;8.95;8.65;;;21.80;99.90;;;;;;6166874;23;20197;-78
2023/08/20 04:38:53;;;;;;;8.98;8.68;;;21.80;99.90;;;;;;6167253;23;20279;-78
2023/08/20 04:41:20;;;;;;;9.00;8.70;;;21.80;99.90;;;;;;6167226;23;20252;-78
2023/08/20 04:43:47;;;;;;;8.90;8.60;;;21.80;99.90;;;;;;6167389;23;20204;-78
2023/08/20 04:46:15;;;;;;;9.07;8.77;;;21.80;99.90;;;;;;6169178;23;20232;-78
2023/08/20 04:48:42;;;;;;;9.10;8.80;;;21.80;99.90;;;;;;6166976;23;20196;-78
2023/08/20 04:51:09;;;;;;;9.90;9.60;;;21.80;99.90;;;;;;6167771;23;20209;-79
2023/08/20 04:53:36;;;;;;;9.70;9.40;;;21.80;99.90;;;;;;6165688;23;20211;-78
2023/08/20 04:56:05;;;;;;;9.75;9.45;;;21.90;99.90;;;;;;6165985;23;20220;-78
2023/08/20 04:58:32;;;;;;;9.68;9.38;;;21.90;99.90;;;;;;6166333;23;20247;-77
2023/08/20 05:00:58;;;;;;;9.80;9.50;;;22.00;99.90;;;;;;6172521;23;20252;-78
2023/08/20 05:03:27;;;;;;;9.70;9.40;;;22.00;99.90;;;;;;6171109;23;20215;-78
2023/08/20 05:05:54;;;;;;;9.63;9.32;;;22.10;99.90;;;;;;6170119;23;20206;-78
2023/08/20 05:08:21;;;;;;;10.20;9.90;;;22.10;99.90;;;;;;6167102;23;20436;-77
2023/08/20 05:10:48;;;;;;;9.90;9.60;;;22.10;99.90;;;;;;6165560;23;20196;-77
2023/08/20 05:13:16;;;;;;;9.88;9.57;;;22.20;99.90;;;;;;6164372;23;20271;-77
2023/08/20 05:15:43;;;;;;;9.90;9.60;;;22.30;99.90;;;;;;6164961;23;20220;-77
2023/08/20 05:18:11;;;;;;;9.70;9.40;;;22.30;99.90;;;;;;6165430;23;20227;-77
2023/08/20 05:20:41;;;;;;;9.70;9.40;;;22.40;99.90;;;;;;6164047;23;20232;-77
2023/08/20 05:23:08;;;;;;;9.68;9.38;;;22.40;99.90;;;;;;6163814;23;20299;-77
2023/08/20 05:25:35;;;;;;;9.52;9.23;;;22.50;99.90;;;;;;6164313;23;20268;-77
2023/08/20 05:28:02;;;;;;;9.55;9.25;;;22.60;99.90;;;;;;6164439;23;20279;-77
2023/08/20 05:30:31;;;;;;;9.68;9.38;;;22.70;99.90;;;;;;6164168;23;20193;-77
2023/08/20 05:32:58;;;;;;;9.55;9.25;;;22.70;99.90;;;;;;6164340;23;20260;-77
2023/08/20 05:35:25;;;;;;;9.85;9.55;;;22.80;99.90;;;;;;6164365;23;20192;-78
2023/08/20 05:37:52;;;;;;;9.50;9.20;;;22.80;99.90;;;;;;6164093;23;20755;-77
2023/08/20 05:40:20;;;;;;;9.73;9.43;;;22.70;99.90;;;;;;6163886;23;21017;-78
2023/08/20 05:42:47;;;;;;;9.88;9.57;;;22.70;99.90;;;;;;6163590;23;20247;-78
2023/08/20 05:45:14;;;;;;;8.60;8.40;;;22.80;99.90;;;;;;6163872;23;20287;-78
2023/08/20 05:47:42;;;;;;;8.68;8.48;;;22.90;99.90;;;;;;6164506;23;20192;-77
2023/08/20 05:50:10;;;;;;;8.75;8.55;;;22.90;99.90;;;;;;6164707;23;20211;-79
2023/08/20 05:52:37;;;;;;;8.73;8.52;;;23.00;99.90;;;;;;6165416;23;20216;-79
2023/08/20 05:55:05;;;;;;;9.10;8.80;;;23.00;99.90;;;;;;6164897;23;20283;-80
2023/08/20 05:57:32;;;;;;;9.20;8.90;;;23.00;99.90;;;;;;6164963;23;20218;-79
2023/08/20 05:59:59;;;;;;;9.10;8.80;;;23.00;99.90;;;;;;6166647;23;20244;-78
2023/08/20 06:02:26;;;;;;;9.30;9.00;;;23.00;99.90;;;;;;6164976;23;20223;-78
2023/08/20 06:04:54;;;;;;;9.20;8.90;;;23.10;99.90;;;;;;6165018;23;20200;-79
2023/08/20 06:07:21;;;;;;;9.10;8.80;;;23.20;99.90;;;;;;6165292;23;20205;-78
2023/08/20 06:09:49;;;;;;;9.27;8.98;;;23.20;99.90;;;;;;6165655;23;20222;-79
2023/08/20 06:12:17;;;;;;;9.40;9.10;;;23.30;99.90;;;;;;6165068;23;20283;-79
2023/08/20 06:14:44;;;;;;;9.43;9.13;;;23.30;99.90;;;;;;6165095;23;21121;-79
2023/08/20 06:17:11;;;;;;;9.38;9.07;;;23.30;99.90;;;;;;6165158;23;20227;-79
2023/08/20 06:19:38;;;;;;;9.57;9.27;;;23.30;99.90;;;;;;6164684;23;20282;-79
2023/08/20 06:22:06;;;;;;;9.52;9.23;;;23.40;99.90;;;;;;6164839;23;20251;-79
2023/08/20 06:24:33;;;;;;;9.80;9.50;;;23.40;99.90;;;;;;6165047;23;20195;-79
2023/08/20 06:27:01;;;;;;;9.73;9.43;;;23.50;99.90;;;;;;6165351;23;20660;-78
2023/08/20 06:29:28;;;;;;;10.00;9.70;;;23.50;99.90;;;;;;6164728;23;20283;-79
2023/08/20 06:31:55;;;;;;;10.13;9.82;;;23.60;99.90;;;;;;6165881;23;20231;-79
2023/08/20 06:34:22;;;;;;;10.20;9.90;;;23.60;99.90;;;;;;6168184;23;20267;-79
2023/08/20 06:36:50;;;;;;;10.13;9.82;;;23.70;99.90;;;;;;6167611;23;20232;-79
2023/08/20 06:39:19;;;;;;;10.07;9.77;;;23.70;99.90;;;;;;6166861;23;20223;-79
2023/08/20 06:41:47;;;;;;;10.15;9.85;;;23.80;99.90;;;;;;6166985;23;20208;-80
2023/08/20 06:44:14;;;;;;;10.25;9.95;;;23.80;99.90;;;;;;6165383;23;20199;-78
2023/08/20 06:46:41;;;;;;;10.40;10.10;;;23.90;99.90;;;;;;6163649;23;20699;-78
2023/08/20 06:49:08;;;;;;;10.38;10.07;;;24.10;99.90;;;;;;6163681;23;20209;-78
2023/08/20 06:51:35;;;;;;;10.40;10.10;;;24.30;99.90;;;;;;6164573;23;20287;-79
2023/08/20 06:54:05;;;;;;;10.32;10.02;;;24.40;99.90;;;;;;6164978;23;20200;-78
2023/08/20 06:56:34;;;;;;;10.38;10.07;;;24.50;99.90;;;;;;6164800;23;20231;-79
2023/08/20 06:59:02;;;;;;;10.63;10.32;;;24.70;99.90;;;;;;6164044;23;20215;-79
2023/08/20 07:01:30;;;;;;;10.40;10.10;;;24.70;99.90;;;;;;6163949;23;20208;-78
2023/08/20 07:03:57;;;;;;;10.43;10.13;;;24.80;99.90;;;;;;6164075;23;20244;-79
2023/08/20 07:06:24;;;;;;;10.35;10.05;;;25.00;99.90;;;;;;6165222;23;20256;-78
2023/08/20 07:08:51;;;;;;;10.40;10.10;;;25.00;99.90;;;;;;6164016;23;20275;-79
2023/08/20 07:11:18;;;;;;;10.60;10.30;;;25.10;99.90;;;;;;6163885;23;20286;-79
2023/08/20 07:13:46;;;;;;;10.38;10.07;;;25.20;99.90;;;;;;6164648;23;20260;-79
2023/08/20 07:16:13;;;;;;;10.32;10.02;;;25.40;99.90;;;;;;6164731;23;20275;-79
2023/08/20 07:18:40;;;;;;;10.35;10.05;;;25.50;99.90;;;;;;6165707;23;20228;-79
2023/08/20 07:21:08;;;;;;;10.40;10.10;;;25.70;99.90;;;;;;6167911;23;20691;-78
2023/08/20 07:23:35;;;;;;;10.55;10.25;;;25.80;99.90;;;;;;6165567;23;20214;-78
2023/08/20 07:26:07;;;;;;;10.30;10.00;;;25.80;99.90;;;;;;6172865;23;20207;-79
2023/08/20 07:31:24;;;;;;;10.70;10.40;;;25.90;99.90;;;;;;6176598;23;20192;-79
2023/08/20 07:33:52;;;;;;;10.70;10.40;;;26.00;99.90;;;;;;6175553;23;20222;-80
2023/08/20 07:36:21;;;;;;;10.70;10.40;;;26.10;99.90;;;;;;6176760;23;20209;-79
2023/08/20 07:38:49;;;;;;;10.70;10.40;;;26.20;99.90;;;;;;6177145;23;20207;-80
2023/08/20 07:41:16;;;;;;;10.60;10.30;;;26.40;99.90;;;;;;6176645;23;20215;-79
2023/08/20 07:43:44;;;;;;;10.68;10.38;;;26.50;99.90;;;;;;6175782;23;20219;-79
2023/08/20 07:46:11;;;;;;;10.57;10.27;;;26.60;99.90;;;;;;6175568;23;20249;-80
2023/08/20 07:48:40;;;;;;;10.57;10.27;;;26.70;99.90;;;;;;6181328;23;20222;-80
2023/08/20 07:51:08;;;;;;;10.70;10.40;;;26.80;99.90;;;;;;6182566;23;20232;-81
2023/08/20 07:53:35;;;;;;;10.88;10.57;;;26.90;99.90;;;;;;6177884;23;20200;-80
2023/08/20 07:56:02;;;;;;;10.70;10.40;;;27.00;99.90;;;;;;6173771;23;20287;-79
2023/08/20 07:58:30;;;;;;;10.75;10.45;;;27.10;99.90;;;;;;6172824;23;20196;-78
2023/08/20 08:00:57;;;;;;;10.60;10.30;;;27.20;99.90;;;;;;6168864;23;20228;-79
2023/08/20 08:03:27;;;;;;;10.68;10.38;;;27.30;99.90;;;;;;6168905;23;20192;-79
2023/08/20 08:05:56;;;;;;;10.50;10.20;;;27.50;99.90;;;;;;6168980;23;20196;-81
2023/08/20 08:08:24;;;;;;;10.45;10.15;;;27.60;99.90;;;;;;6168229;23;20227;-79
2023/08/20 08:10:51;;;;;;;10.38;10.07;;;27.70;99.90;;;;;;6167581;23;20252;-80
2023/08/20 08:13:21;;;;;;;10.35;10.05;;;27.70;99.90;;;;;;6167746;23;20200;-79
2023/08/20 08:15:48;;;;;;;10.38;10.07;;;27.80;99.90;;;;;;6169964;23;20196;-80
2023/08/20 08:18:15;;;;;;;10.40;10.10;;;27.80;99.90;;;;;;6171445;23;20271;-79
2023/08/20 08:20:42;;;;;;;10.25;9.95;;;27.80;99.90;;;;;;6169345;23;20219;-78
2023/08/20 08:23:11;;;;;;;10.48;10.18;;;27.90;99.90;;;;;;6183806;22;20240;-79
2023/08/20 08:25:38;;;;;;;10.35;10.05;;;28.00;99.90;;;;;;6168065;23;20196;-78
2023/08/20 08:28:06;;;;;;;10.30;10.00;;;28.20;99.90;;;;;;6167031;23;20203;-79
2023/08/20 08:30:34;;;;;;;10.15;9.85;;;28.30;99.90;;;;;;6164407;23;20209;-76
2023/08/20 08:33:01;;;;;;;10.20;9.90;;;28.40;99.90;;;;;;6164054;23;20291;-78
2023/08/20 08:35:28;;;;;;;10.25;9.95;;;28.50;99.90;;;;;;6165963;23;20227;-80
2023/08/20 08:37:55;;;;;;;10.30;10.00;;;28.70;99.90;;;;;;6170089;23;20226;-80
2023/08/20 08:40:29;;;;;;;10.10;9.80;;;28.90;99.90;;;;;;6167393;23;20247;-79
2023/08/20 08:42:56;;;;;;;10.40;10.10;;;29.20;99.90;;;;;;6167906;23;20212;-79
2023/08/20 08:45:24;;;;;;;10.10;9.80;;;29.50;99.90;;;;;;6165758;23;20196;-78
2023/08/20 08:47:55;;;;;;;10.43;10.13;;;29.70;99.90;;;;;;6170273;23;20220;-79
2023/08/20 08:50:22;;;;;;;10.48;10.18;;;29.80;99.90;;;;;;6169374;23;20192;-80
2023/08/20 08:52:52;;;;;;;10.32;10.02;;;29.90;99.90;;;;;;6168109;23;20290;-80
2023/08/20 08:55:20;;;;;;;10.30;10.00;;;30.10;99.90;;;;;;6169506;23;20196;-80
2023/08/20 08:57:49;;;;;;;10.32;10.02;;;30.30;99.90;;;;;;6169649;23;20220;-81
2023/08/20 09:00:17;;;;;;;10.27;9.98;;;30.60;99.90;;;;;;6170332;23;20210;-81
2023/08/20 09:02:44;;;;;;;10.20;9.90;;;31.00;99.90;;;;;;6168288;23;20230;-80
2023/08/20 09:05:11;;;;;;;9.80;9.50;;;31.30;99.90;;;;;;6166356;23;20220;-80
2023/08/20 09:07:44;;;;;;;9.85;9.55;;;31.50;99.90;;;;;;6165755;23;20714;-78
2023/08/20 09:10:12;;;;;;;9.80;9.50;;;31.50;99.90;;;;;;6166351;23;20203;-79
2023/08/20 09:12:39;;;;;;;9.70;9.40;;;31.70;99.90;;;;;;6167196;23;20201;-80
2023/08/20 09:15:11;;;;;;;9.90;9.60;;;32.00;99.90;;;;;;6167581;23;20192;-81
2023/08/20 09:17:39;;;;;;;9.75;9.45;;;32.10;99.90;;;;;;6168017;23;20248;-80
2023/08/20 09:20:07;;;;;;;9.73;9.43;;;32.20;99.90;;;;;;6165133;23;20218;-82
2023/08/20 09:22:37;;;;;;;9.70;9.40;;;32.10;99.90;;;;;;6168175;23;20199;-81
2023/08/20 09:25:05;;;;;;;9.90;9.60;;;32.00;99.90;;;;;;6167343;23;20193;-79
2023/08/20 09:27:41;;;;;;;9.70;9.40;;;32.30;99.90;;;;;;6166313;23;20200;-79
2023/08/20 09:30:11;;;;;;;9.60;9.30;;;32.50;99.90;;;;;;6166938;23;20207;-80
2023/08/20 09:32:38;;;;;;;9.63;9.32;;;32.70;99.90;;;;;;6166570;23;20219;-80
2023/08/20 09:35:06;;;;;;;9.77;9.48;;;33.00;99.90;;;;;;6168234;23;20202;-80
2023/08/20 09:37:34;;;;;;;9.70;9.40;;;33.30;99.90;;;;;;6166801;23;20256;-79
2023/08/20 09:40:02;;;;;;;9.80;9.50;;;33.40;99.90;;;;;;6166811;23;20283;-80
2023/08/20 09:42:32;;;;;;;9.90;9.60;;;33.40;99.90;;;;;;6166219;23;20215;-80
2023/08/20 09:45:04;;;;;;;9.90;9.60;;;33.40;99.90;;;;;;6167804;23;20192;-79
2023/08/20 09:47:37;;;;;;;9.57;9.27;;;33.30;99.90;;;;;;6168122;23;20203;-80
2023/08/20 09:50:11;;;;;;;9.70;9.40;;;33.50;99.90;;;;;;6167248;23;20196;-79
2023/08/20 09:52:41;;;;;;;9.80;9.50;;;33.80;99.90;;;;;;6166900;23;20282;-79
2023/08/20 09:55:10;;;;;;;9.60;9.30;;;34.00;99.90;;;;;;6167594;23;20243;-79
2023/08/20 09:57:39;;;;;;;9.70;9.40;;;33.60;99.90;;;;;;6166210;23;20200;-79
2023/08/20 10:00:10;;;;;;;9.68;9.38;;;34.00;99.90;;;;;;6165592;23;20678;-79
2023/08/20 10:02:40;;;;;;;9.90;9.60;;;34.30;99.90;;;;;;6166157;23;20200;-79
2023/08/20 10:05:08;;;;;;;10.18;9.88;;;34.70;99.90;;;;;;6165973;23;20204;-80
2023/08/20 10:07:36;;;;;;;9.82;9.52;;;34.90;99.90;;;;;;6168417;23;20247;-80
2023/08/20 10:10:05;;;;;;;9.90;9.60;;;34.90;99.90;;;;;;6167967;23;20264;-80
2023/08/20 10:12:33;;;;;;;10.05;9.75;;;34.80;99.90;;;;;;6171798;23;20291;-79
2023/08/20 10:15:02;;;;;;;9.70;9.40;;;35.10;99.90;;;;;;6168473;23;20271;-79
2023/08/20 10:17:33;;;;;;;10.02;9.73;;;35.30;99.90;;;;;;6169169;23;20232;-80
2023/08/20 10:20:04;;;;;;;10.13;9.82;;;35.40;99.90;;;;;;6168877;23;20200;-81
2023/08/20 10:22:36;;;;;;;10.25;9.95;;;35.50;99.90;;;;;;6167451;23;21023;-80
2023/08/20 10:25:07;;;;;;;10.40;10.10;;;35.40;99.90;;;;;;6168162;23;20224;-80
2023/08/20 10:27:36;;;;;;;9.90;9.60;;;35.70;99.90;;;;;;6167327;23;20703;-80
2023/08/20 10:30:15;;;;;;;9.90;9.60;;;35.70;99.90;;;;;;6165918;23;20251;-79
2023/08/20 10:32:47;;;;;;;10.10;9.80;;;35.70;99.90;;;;;;6167770;23;20212;-80
2023/08/20 10:35:17;;;;;;;10.23;9.93;;;35.80;99.90;;;;;;6168294;23;20279;-80
2023/08/20 10:38:05;;;;;;;10.30;10.00;;;36.10;99.90;;;;;;6169745;23;20202;-80
2023/08/20 10:40:54;;;;;;;10.23;9.93;;;36.50;99.90;;;;;;6167805;23;20400;-79
2023/08/20 10:43:29;;;;;;;10.38;10.07;;;36.50;99.90;;;;;;6166896;23;20207;-79
2023/08/20 10:46:17;;;;;;;10.40;10.10;;;36.50;99.90;;;;;;6178882;23;20196;-81
2023/08/20 10:48:49;;;;;;;10.30;10.00;;;36.10;99.90;;;;;;6171915;23;20201;-81
2023/08/20 10:51:19;;;;;;;10.27;9.98;;;36.00;99.90;;;;;;6171896;23;20199;-82
2023/08/20 10:54:04;;;;;;;10.23;9.93;;;36.00;99.90;;;;;;6169907;23;20199;-81
2023/08/20 10:56:42;;;;;;;10.43;10.13;;;35.90;99.90;;;;;;6167197;23;20192;-80
2023/08/20 10:59:14;;;;;;;10.32;10.02;;;36.00;99.90;;;;;;6166473;23;20240;-79
2023/08/20 11:01:44;;;;;;;10.40;10.10;;;36.30;99.90;;;;;;6167456;23;20368;-79
2023/08/20 11:04:11;;;;;;;10.30;10.00;;;36.50;99.90;;;;;;6171368;23;20211;-82
2023/08/20 11:06:40;;;;;;;10.70;10.40;;;36.80;99.90;;;;;;6180959;23;20342;-81
2023/08/20 11:09:07;;;;;;;10.40;10.10;;;36.90;99.90;;;;;;6182556;23;20203;-79
2023/08/20 11:11:35;;;;;;;10.20;9.90;;;37.20;99.90;;;;;;6183067;23;20196;-82
2023/08/20 11:14:08;;;;;;;10.27;9.98;;;37.30;99.90;;;;;;6183449;23;20200;-81
2023/08/20 11:16:36;;;;;;;10.27;9.98;;;37.50;99.90;;;;;;6178055;23;20584;-81
2023/08/20 11:19:08;;;;;;;10.23;9.93;;;37.50;99.90;;;;;;6170225;23;20204;-81
2023/08/20 11:21:37;;;;;;;10.02;9.73;;;37.60;99.90;;;;;;6172071;23;20228;-82
2023/08/20 11:24:06;;;;;;;10.10;9.80;;;37.60;99.90;;;;;;6178685;23;20203;-83
2023/08/20 11:26:34;;;;;;;9.90;9.60;;;37.50;99.90;;;;;;6175931;23;20204;-81
2023/08/20 11:29:01;;;;;;;10.05;9.75;;;37.50;99.90;;;;;;6170116;23;20199;-81
2023/08/20 11:31:29;;;;;;;10.13;9.82;;;37.70;99.90;;;;;;6167118;23;20210;-80
2023/08/20 11:33:58;;;;;;;10.07;9.77;;;38.10;99.90;;;;;;6169509;23;20243;-80
2023/08/20 11:36:25;;;;;;;10.30;10.00;;;38.60;99.90;;;;;;6169663;23;20203;-82
2023/08/20 11:38:53;;;;;;;10.23;9.93;;;38.70;99.90;;;;;;6170235;23;20203;-82
2023/08/20 11:41:22;;;;;;;10.20;9.90;;;38.80;99.90;;;;;;6170226;23;20211;-80
2023/08/20 11:43:49;;;;;;;10.10;9.80;;;38.80;99.90;;;;;;6169744;23;20235;-83
2023/08/20 11:46:19;;;;;;;10.10;9.80;;;39.00;99.90;;;;;;6170576;23;20212;-82
2023/08/20 11:49:04;;;;;;;10.05;9.75;;;38.60;99.90;;;;;;6174020;23;20200;-83
2023/08/20 11:51:36;;;;;;;10.25;9.95;;;38.10;99.90;;;;;;6174241;22;20252;-82
2023/08/20 11:54:06;;;;;;;10.30;10.00;;;37.70;99.90;;;;;;6167649;23;20200;-83
2023/08/20 11:56:38;;;;;;;10.23;9.93;;;37.80;99.90;;;;;;6169187;23;20196;-82
2023/08/20 11:59:05;;;;;;;10.15;9.85;;;37.90;99.90;;;;;;6170060;23;20223;-80
2023/08/20 12:01:33;;;;;;;10.20;9.90;;;37.70;99.90;;;;;;6169558;23;20287;-81
2023/08/20 12:04:03;;;;;;;10.30;10.00;;;37.90;99.90;;;;;;6169087;23;20306;-81
2023/08/20 12:06:31;;;;;;;10.40;10.10;;;37.70;99.90;;;;;;6171147;23;20199;-80
2023/08/20 12:08:58;;;;;;;10.20;9.90;;;37.50;99.90;;;;;;6170442;23;20252;-81
2023/08/20 12:11:26;;;;;;;10.30;10.00;;;37.20;99.90;;;;;;6170135;23;20196;-81
2023/08/20 12:13:56;;;;;;;10.23;9.93;;;37.20;99.90;;;;;;6169403;23;20207;-79
2023/08/20 12:16:24;;;;;;;10.48;10.18;;;37.10;99.90;;;;;;6169950;23;20222;-80
2023/08/20 12:18:52;;;;;;;10.43;10.13;;;36.90;99.90;;;;;;6169610;23;20248;-80
2023/08/20 12:21:19;;;;;;;10.32;10.02;;;36.70;99.90;;;;;;6167316;23;20212;-81
2023/08/20 12:23:46;;;;;;;10.30;10.00;;;36.80;99.90;;;;;;6169964;23;20275;-81
2023/08/20 12:26:14;;;;;;;10.45;10.15;;;37.00;99.90;;;;;;6170496;23;20717;-81
2023/08/20 12:28:41;;;;;;;10.40;10.10;;;36.90;99.90;;;;;;6169483;23;20253;-80
2023/08/20 12:31:10;;;;;;;10.18;9.88;;;36.90;99.90;;;;;;6168258;23;20212;-81
2023/08/20 12:33:37;;;;;;;10.30;10.00;;;37.00;99.90;;;;;;6169968;23;20196;-81
2023/08/20 12:36:05;;;;;;;10.45;10.15;;;37.30;99.90;;;;;;6169674;23;20268;-82
2023/08/20 12:38:33;;;;;;;10.45;10.15;;;37.70;99.90;;;;;;6169648;23;20196;-80
2023/08/20 12:41:01;;;;;;;10.23;9.93;;;37.80;99.90;;;;;;6169819;23;20203;-80
2023/08/20 12:43:28;;;;;;;10.20;9.90;;;37.80;99.90;;;;;;6170260;23;20204;-80
2023/08/20 12:45:55;;;;;;;10.25;9.95;;;38.10;99.90;;;;;;6171088;23;20235;-81
2023/08/20 12:48:23;;;;;;;10.45;10.15;;;38.60;99.90;;;;;;6170072;23;20192;-80
2023/08/20 12:50:50;;;;;;;10.40;10.10;;;38.70;99.90;;;;;;6170462;23;20268;-80